Time;durP1;ratioP1;P1;durP2;ratioP2;P2;SDS_P1;SDS_P2;PMS_P1;PMS_P2;Temp;Humidity;BMP_temperature;BMP_pressure;BME280_temperature;BME280_humidity;BME280_pressure;Samples;Min_cycle;Max_cycle;Signal;HPM_P1;HPM_P2
2020/12/07 00:02:00;;;;;;;3.55;1.70;;;;;;;13.72;45.97;100363.59;4996844;28;20407;-46
2020/12/07 00:04:25;;;;;;;4.53;2.00;;;;;;;13.68;45.91;100369.81;4994463;28;20065;-45
2020/12/07 00:06:55;;;;;;;1.42;0.63;;;;;;;13.70;45.70;100371.13;4996317;28;20041;-47
2020/12/07 00:09:20;;;;;;;2.70;0.98;;;;;;;13.69;46.25;100366.00;4998421;28;20073;-47
2020/12/07 00:11:49;;;;;;;12.10;2.50;;;;;;;13.73;45.94;100361.72;4988496;28;20476;-46
2020/12/07 00:14:15;;;;;;;8.43;2.58;;;;;;;13.71;46.49;100353.06;4997862;28;20046;-48
2020/12/07 00:16:45;;;;;;;2.55;0.80;;;;;;;13.74;47.39;100355.25;4992797;28;20516;-47
2020/12/07 00:19:14;;;;;;;2.30;1.55;;;;;;;13.54;47.52;100362.25;4995243;28;20751;-46
2020/12/07 00:21:42;;;;;;;42.10;20.88;;;;;;;13.65;46.02;100359.56;4997602;28;20382;-46
2020/12/07 00:24:10;;;;;;;11.00;6.60;;;;;;;13.72;45.81;100352.00;4996305;28;20041;-49
2020/12/07 00:26:38;;;;;;;4.07;2.83;;;;;;;13.69;46.07;100349.84;4997345;28;20060;-46
2020/12/07 00:29:05;;;;;;;3.13;1.15;;;;;;;13.62;46.08;100350.09;5001677;28;20428;-45
2020/12/07 00:31:34;;;;;;;6.78;2.17;;;;;;;13.69;45.92;100347.16;4989154;28;20035;-49
2020/12/07 00:33:59;;;;;;;2.83;1.13;;;;;;;13.71;46.35;100350.38;4991621;28;20080;-46
2020/12/07 00:36:26;;;;;;;3.20;1.23;;;;;;;13.64;46.13;100357.94;4996181;28;20069;-46
2020/12/07 00:38:55;;;;;;;3.22;1.08;;;;;;;13.51;46.20;100354.69;4993360;28;20042;-48
2020/12/07 00:41:22;;;;;;;1.10;0.70;;;;;;;13.50;47.47;100358.47;4990587;28;20046;-50
2020/12/07 00:43:50;;;;;;;1.35;0.60;;;;;;;13.69;46.62;100357.94;4990205;28;20041;-46
2020/12/07 00:46:17;;;;;;;5.03;3.28;;;;;;;13.72;46.49;100347.41;4997356;28;20470;-50
2020/12/07 00:48:42;;;;;;;4.85;3.00;;;;;;;13.76;47.16;100350.38;4990027;28;20046;-51
2020/12/07 00:51:08;;;;;;;1.38;0.80;;;;;;;13.78;46.64;100348.25;4978766;28;20057;-52
2020/12/07 00:53:34;;;;;;;4.22;2.83;;;;;;;13.76;46.89;100348.53;4990731;28;20030;-49
2020/12/07 00:55:59;;;;;;;4.57;1.50;;;;;;;13.72;47.49;100341.22;4993502;28;20307;-50
2020/12/07 00:58:25;;;;;;;0.68;0.38;;;;;;;13.48;47.62;100341.78;4995063;28;20056;-47
2020/12/07 01:00:50;;;;;;;2.38;0.90;;;;;;;13.53;47.76;100340.97;4990862;28;20041;-48
2020/12/07 01:03:16;;;;;;;3.20;1.67;;;;;;;13.50;48.10;100336.94;4994874;28;20459;-48
2020/12/07 01:05:42;;;;;;;1.17;0.93;;;;;;;13.63;47.65;100343.66;4996520;28;20034;-50
2020/12/07 01:08:07;;;;;;;4.63;0.55;;;;;;;13.58;47.83;100352.53;4995600;28;20781;-45
2020/12/07 01:10:33;;;;;;;6.60;0.55;;;;;;;13.55;47.99;100346.88;4998600;28;20041;-50
2020/12/07 01:12:58;;;;;;;4.13;1.10;;;;;;;13.45;47.23;100345.00;5001293;28;20037;-47
2020/12/07 01:15:24;;;;;;;1.85;1.10;;;;;;;13.34;47.92;100332.59;4997314;28;20778;-51
2020/12/07 01:17:49;;;;;;;0.57;0.20;;;;;;;13.39;47.70;100340.66;4995182;28;20044;-48
2020/12/07 01:20:15;;;;;;;0.98;0.40;;;;;;;13.58;47.71;100338.25;4997039;28;20061;-49
2020/12/07 01:22:40;;;;;;;2.97;1.02;;;;;;;13.69;47.54;100341.75;4994190;28;20084;-47
2020/12/07 01:25:06;;;;;;;4.35;2.13;;;;;;;13.60;47.29;100336.94;4993609;28;20113;-47
2020/12/07 01:27:31;;;;;;;4.03;2.25;;;;;;;13.65;46.98;100329.94;4993210;28;20030;-52
2020/12/07 01:29:57;;;;;;;4.82;2.13;;;;;;;13.68;47.07;100332.09;4992820;28;20035;-49
2020/12/07 01:32:22;;;;;;;4.80;2.00;;;;;;;13.69;47.51;100336.38;5000555;28;20038;-49
2020/12/07 01:34:49;;;;;;;7.20;1.63;;;;;;;13.74;48.12;100333.69;4997492;28;20459;-49
2020/12/07 01:37:15;;;;;;;2.80;1.00;;;;;;;13.53;48.09;100330.97;4999075;28;20059;-48
2020/12/07 01:39:41;;;;;;;3.85;1.77;;;;;;;13.46;48.77;100332.34;4998587;28;20096;-47
2020/12/07 01:42:06;;;;;;;3.22;1.95;;;;;;;13.44;47.99;100332.59;4998161;28;20030;-47
2020/12/07 01:44:31;;;;;;;4.05;0.80;;;;;;;13.45;48.41;100336.94;4999739;28;20049;-51
2020/12/07 01:46:57;;;;;;;1.52;0.98;;;;;;;13.51;47.88;100329.66;4997961;28;20038;-47
2020/12/07 01:49:24;;;;;;;1.02;0.52;;;;;;;13.57;48.12;100333.97;5000085;28;20031;-49
2020/12/07 01:51:50;;;;;;;1.58;0.90;;;;;;;13.59;48.35;100332.63;4996594;28;20173;-49
2020/12/07 01:54:17;;;;;;;3.13;1.35;;;;;;;13.59;48.68;100329.91;4998562;28;20117;-48
2020/12/07 01:56:42;;;;;;;6.10;1.05;;;;;;;13.60;48.80;100331.56;4998131;28;20136;-47
2020/12/07 01:59:08;;;;;;;2.95;1.55;;;;;;;13.58;48.56;100327.50;4998404;28;20475;-46
2020/12/07 02:01:36;;;;;;;4.05;1.38;;;;;;;13.59;48.68;100335.31;4999288;28;20495;-48
2020/12/07 02:04:02;;;;;;;5.28;1.75;;;;;;;13.51;47.47;100329.66;4997944;28;20034;-48
2020/12/07 02:06:28;;;;;;;1.77;0.40;;;;;;;13.54;47.21;100334.50;4999994;28;20064;-49
2020/12/07 02:08:53;;;;;;;4.95;0.93;;;;;;;13.53;47.91;100332.88;4997547;28;20189;-48
2020/12/07 02:11:19;;;;;;;1.08;0.60;;;;;;;13.41;47.56;100341.22;4998050;28;20033;-47
2020/12/07 02:13:45;;;;;;;1.85;0.85;;;;;;;13.49;47.81;100329.13;4997924;28;20447;-45
2020/12/07 02:16:11;;;;;;;0.73;0.73;;;;;;;13.50;48.05;100336.09;4998096;28;20117;-46
2020/12/07 02:18:36;;;;;;;1.85;0.88;;;;;;;13.45;47.74;100334.22;4998594;28;20508;-44
2020/12/07 02:21:02;;;;;;;1.90;0.50;;;;;;;13.45;48.52;100323.47;4997182;28;20034;-48
2020/12/07 02:23:28;;;;;;;1.02;0.68;;;;;;;13.49;47.90;100329.13;4999830;28;20578;-46
2020/12/07 02:25:53;;;;;;;2.60;0.98;;;;;;;13.37;47.89;100323.97;4997041;28;20161;-46
2020/12/07 02:28:19;;;;;;;5.65;1.10;;;;;;;13.44;47.74;100324.53;4999403;28;20034;-48
2020/12/07 02:30:44;;;;;;;5.70;1.33;;;;;;;13.48;47.67;100317.53;4997048;28;20034;-48
2020/12/07 02:33:10;;;;;;;2.72;0.60;;;;;;;13.52;48.36;100315.91;4998451;28;20378;-46
2020/12/07 02:35:35;;;;;;;2.90;1.30;;;;;;;13.47;47.91;100313.22;4998223;28;20038;-45
2020/12/07 02:38:01;;;;;;;2.20;1.15;;;;;;;13.40;48.35;100316.16;4997226;28;20044;-47
2020/12/07 02:40:26;;;;;;;3.63;0.80;;;;;;;13.39;48.53;100317.25;4999482;28;20046;-45
2020/12/07 02:42:52;;;;;;;0.77;0.68;;;;;;;13.41;47.89;100311.59;4996970;28;20038;-45
2020/12/07 02:45:18;;;;;;;0.63;0.50;;;;;;;13.35;48.77;100309.97;4998617;28;20105;-47
2020/12/07 02:47:43;;;;;;;2.00;1.38;;;;;;;13.22;49.69;100311.28;4996814;28;20123;-45
2020/12/07 02:50:10;;;;;;;2.35;1.10;;;;;;;13.14;49.99;100304.53;4997431;28;20074;-48
2020/12/07 02:52:36;;;;;;;3.65;1.35;;;;;;;13.23;49.63;100305.63;4994974;28;20101;-47
2020/12/07 02:55:05;;;;;;;1.60;0.50;;;;;;;13.19;49.27;100312.63;4991971;28;20034;-45
2020/12/07 02:57:30;;;;;;;3.00;0.73;;;;;;;13.06;49.77;100307.78;4989780;28;20048;-47
2020/12/07 02:59:56;;;;;;;2.80;0.80;;;;;;;13.09;49.46;100304.53;4991680;28;20034;-45
2020/12/07 03:02:21;;;;;;;1.02;0.57;;;;;;;13.29;49.72;100314.53;4990998;28;20034;-47
2020/12/07 03:04:47;;;;;;;5.70;0.80;;;;;;;13.37;49.42;100310.50;4991216;28;20074;-48
2020/12/07 03:07:13;;;;;;;3.78;1.05;;;;;;;13.44;49.65;100297.59;4997913;28;20046;-47
2020/12/07 03:09:39;;;;;;;2.05;0.70;;;;;;;13.48;49.81;100301.38;4997757;28;20165;-48
2020/12/07 03:12:06;;;;;;;2.40;0.63;;;;;;;13.42;48.76;100314.00;4995910;28;20034;-45
2020/12/07 03:14:31;;;;;;;0.50;0.32;;;;;;;13.11;50.23;100321.22;4995833;28;20116;-46
2020/12/07 03:16:57;;;;;;;4.32;0.50;;;;;;;13.19;49.74;100309.94;4991769;28;20447;-44
2020/12/07 03:19:23;;;;;;;2.60;0.57;;;;;;;13.15;50.08;100311.53;4990888;28;20475;-44
2020/12/07 03:21:48;;;;;;;4.47;1.55;;;;;;;13.10;50.39;100305.34;4991475;28;20030;-46
2020/12/07 03:24:14;;;;;;;0.38;0.30;;;;;;;13.29;49.45;100289.47;4991404;28;20105;-49
2020/12/07 03:26:40;;;;;;;2.17;0.75;;;;;;;13.24;50.42;100291.09;4991379;28;20158;-45
2020/12/07 03:29:06;;;;;;;3.85;0.88;;;;;;;13.32;50.26;100280.91;4990875;28;20037;-47
2020/12/07 03:31:33;;;;;;;4.88;0.95;;;;;;;13.42;50.28;100283.59;4993690;28;20052;-46
2020/12/07 03:34:00;;;;;;;4.40;1.77;;;;;;;13.37;50.14;100283.59;4991305;28;20154;-45
2020/12/07 03:36:26;;;;;;;0.82;0.65;;;;;;;13.37;51.08;100284.38;4991459;28;20129;-45
2020/12/07 03:38:52;;;;;;;1.83;1.08;;;;;;;13.42;50.49;100275.50;4991933;28;20057;-45
2020/12/07 03:41:18;;;;;;;9.68;1.65;;;;;;;13.42;50.58;100283.59;4991162;28;20115;-47
2020/12/07 03:43:44;;;;;;;1.85;0.77;;;;;;;13.46;50.65;100276.56;4991013;28;20138;-45
2020/12/07 03:46:10;;;;;;;6.10;1.65;;;;;;;13.50;50.82;100285.75;4990782;28;20492;-46
2020/12/07 03:48:35;;;;;;;1.38;0.60;;;;;;;13.46;50.76;100276.56;4996650;28;20129;-46
2020/12/07 03:51:01;;;;;;;6.45;1.20;;;;;;;13.20;51.11;100291.88;4993685;28;20484;-47
2020/12/07 03:53:32;;;;;;;3.70;0.50;;;;;;;13.32;51.28;100283.59;4991212;28;20053;-47
2020/12/07 03:55:58;;;;;;;4.57;1.40;;;;;;;13.29;51.45;100268.75;4991146;28;20096;-45
2020/12/07 03:58:23;;;;;;;1.13;0.45;;;;;;;13.09;53.33;100269.53;4991361;28;20030;-47
2020/12/07 04:00:49;;;;;;;1.52;0.35;;;;;;;13.31;52.06;100271.19;4990903;28;20034;-45
2020/12/07 04:03:14;;;;;;;4.00;1.00;;;;;;;13.21;52.46;100271.97;4990931;28;20046;-47
2020/12/07 04:05:42;;;;;;;4.03;1.35;;;;;;;13.38;51.19;100272.56;4990824;28;20046;-45
2020/12/07 04:08:08;;;;;;;4.32;1.33;;;;;;;13.52;51.27;100269.34;4990968;28;20098;-47
2020/12/07 04:10:37;;;;;;;3.67;0.93;;;;;;;13.50;51.39;100276.84;4990896;28;20061;-46
2020/12/07 04:13:03;;;;;;;1.92;1.15;;;;;;;13.21;50.97;100266.59;4993360;28;20038;-47
2020/12/07 04:15:29;;;;;;;3.17;0.65;;;;;;;13.31;51.19;100271.19;4998457;28;20510;-45
2020/12/07 04:17:54;;;;;;;6.28;3.83;;;;;;;13.20;52.07;100264.97;4984352;28;20038;-45
2020/12/07 04:20:20;;;;;;;0.80;0.50;;;;;;;13.25;50.91;100270.34;4997777;28;20041;-44
2020/12/07 04:22:45;;;;;;;0.95;0.65;;;;;;;13.36;51.04;100268.53;4996314;28;20050;-44
2020/12/07 04:25:10;;;;;;;2.85;0.77;;;;;;;13.45;50.70;100266.91;5000350;28;20047;-49
2020/12/07 04:27:36;;;;;;;2.58;0.70;;;;;;;13.47;51.03;100269.34;4996018;28;20144;-49
2020/12/07 04:30:02;;;;;;;0.63;0.52;;;;;;;13.25;51.86;100270.34;4994299;28;20368;-49
2020/12/07 04:32:28;;;;;;;2.22;1.00;;;;;;;13.38;51.17;100261.78;4994330;28;20049;-51
2020/12/07 04:34:53;;;;;;;9.95;2.45;;;;;;;13.46;51.62;100257.72;4994472;28;20042;-52
2020/12/07 04:37:19;;;;;;;3.33;1.48;;;;;;;13.49;51.47;100246.44;4993701;28;20038;-48
2020/12/07 04:39:44;;;;;;;1.63;0.70;;;;;;;13.43;52.02;100252.91;4994215;28;20042;-45
2020/12/07 04:42:10;;;;;;;2.00;0.77;;;;;;;13.47;52.03;100245.09;4994219;28;20084;-47
2020/12/07 04:44:36;;;;;;;0.60;0.40;;;;;;;13.45;51.90;100252.59;4993796;28;20049;-48
2020/12/07 04:47:03;;;;;;;0.82;0.65;;;;;;;13.39;52.29;100249.13;4998856;28;20045;-53
2020/12/07 04:49:30;;;;;;;4.00;1.60;;;;;;;13.44;52.44;100241.03;5001561;28;20034;-46
2020/12/07 04:51:56;;;;;;;2.58;0.95;;;;;;;13.42;52.91;100245.88;4998813;28;20446;-48
2020/12/07 04:54:24;;;;;;;3.88;1.38;;;;;;;13.40;52.91;100237.28;5001608;28;20039;-50
2020/12/07 04:56:50;;;;;;;2.92;1.08;;;;;;;13.38;53.23;100239.44;4993365;28;20044;-51
2020/12/07 04:59:18;;;;;;;5.38;2.40;;;;;;;13.36;53.31;100241.59;5000511;28;20038;-48
2020/12/07 05:01:44;;;;;;;1.92;1.13;;;;;;;13.40;52.36;100237.28;4999197;28;20032;-49
2020/12/07 05:04:09;;;;;;;2.80;0.65;;;;;;;13.26;53.45;100238.88;4999788;28;20034;-50
2020/12/07 05:06:35;;;;;;;1.65;1.05;;;;;;;13.36;53.40;100250.47;4999820;28;20041;-50
2020/12/07 05:09:00;;;;;;;2.00;1.20;;;;;;;13.43;53.56;100250.22;5013268;28;20097;-47
2020/12/07 05:11:27;;;;;;;3.15;0.98;;;;;;;13.38;53.99;100239.44;4998418;28;20041;-47
2020/12/07 05:13:59;;;;;;;8.05;1.02;;;;;;;13.40;53.81;100242.66;4998194;28;20042;-47
2020/12/07 05:16:25;;;;;;;1.80;1.02;;;;;;;13.41;53.81;100244.25;4995545;28;20045;-50
2020/12/07 05:18:51;;;;;;;2.13;1.63;;;;;;;13.33;54.29;100256.41;4996068;28;20038;-46
2020/12/07 05:21:18;;;;;;;3.72;1.55;;;;;;;13.24;54.16;100239.94;4993076;28;20038;-47
2020/12/07 05:23:47;;;;;;;6.03;1.88;;;;;;;13.30;54.36;100235.34;4992845;28;20443;-47
2020/12/07 05:26:12;;;;;;;3.78;1.70;;;;;;;13.37;54.34;100235.13;4999222;28;20539;-45
2020/12/07 05:28:42;;;;;;;12.88;2.45;;;;;;;13.35;54.69;100224.63;4999802;28;20152;-47
2020/12/07 05:31:21;;;;;;;9.02;2.30;;;;;;;13.33;54.74;100232.16;4987470;28;20092;-45
2020/12/07 05:33:47;;;;;;;3.60;1.83;;;;;;;13.36;54.35;100220.84;4997910;28;20034;-50
2020/12/07 05:36:17;;;;;;;4.65;1.63;;;;;;;13.28;54.38;100215.19;4999485;28;20042;-47
2020/12/07 05:38:44;;;;;;;3.42;1.38;;;;;;;13.40;54.23;100219.22;4996258;28;20062;-47
2020/12/07 05:41:10;;;;;;;8.45;1.65;;;;;;;13.28;54.57;100215.19;4993137;28;20046;-46
2020/12/07 05:43:37;;;;;;;7.63;1.45;;;;;;;13.29;54.95;100220.28;4993007;28;20469;-50
2020/12/07 05:46:04;;;;;;;2.90;1.10;;;;;;;13.37;54.35;100221.66;4993185;28;20042;-50
2020/12/07 05:48:32;;;;;;;10.30;2.53;;;;;;;13.39;54.38;100216.81;4990717;28;20030;-44
2020/12/07 05:51:06;;;;;;;5.57;1.52;;;;;;;13.32;55.27;100225.16;4992513;28;20092;-45
2020/12/07 05:53:37;;;;;;;6.32;1.55;;;;;;;13.15;55.12;100225.41;4990755;28;20037;-47
2020/12/07 05:56:04;;;;;;;16.05;2.65;;;;;;;13.04;55.81;100219.22;4992940;28;20081;-47
2020/12/07 05:58:34;;;;;;;6.32;1.35;;;;;;;13.23;55.19;100221.34;4993193;28;20042;-45
2020/12/07 06:01:02;;;;;;;3.00;1.73;;;;;;;13.31;54.47;100225.41;4997473;28;20548;-47
2020/12/07 06:03:29;;;;;;;3.17;2.13;;;;;;;13.26;55.39;100220.81;4995094;28;20459;-45
2020/12/07 06:05:54;;;;;;;7.75;1.75;;;;;;;13.32;55.50;100227.84;4995165;28;20088;-46
2020/12/07 06:08:40;;;;;;;10.57;2.70;;;;;;;13.21;55.79;100221.63;4994333;28;20050;-46
2020/12/07 06:11:09;;;;;;;8.48;1.50;;;;;;;13.30;55.33;100227.28;4991706;28;20034;-45
2020/12/07 06:13:35;;;;;;;8.43;1.25;;;;;;;13.38;55.10;100220.59;4992729;28;20042;-48
2020/12/07 06:16:05;;;;;;;17.42;5.78;;;;;;;13.38;55.74;100224.09;4997458;28;20053;-48
2020/12/07 06:18:34;;;;;;;12.57;2.45;;;;;;;13.38;56.16;100220.59;5005153;28;20045;-51
2020/12/07 06:21:18;;;;;;;2.55;1.25;;;;;;;13.39;56.50;100219.50;4992159;28;20030;-47
2020/12/07 06:23:46;;;;;;;9.90;3.22;;;;;;;13.30;56.16;100221.91;4991955;28;20054;-49
2020/12/07 06:26:13;;;;;;;8.07;1.35;;;;;;;13.15;56.79;100217.34;4992345;28;20064;-45
2020/12/07 06:28:41;;;;;;;7.63;1.73;;;;;;;13.12;57.25;100220.56;4992272;28;20418;-47
2020/12/07 06:31:12;;;;;;;10.75;2.35;;;;;;;13.05;57.46;100226.19;4993722;28;20118;-49
2020/12/07 06:33:44;;;;;;;18.20;4.18;;;;;;;13.07;57.09;100212.47;4996823;28;20026;-45
2020/12/07 06:36:32;;;;;;;9.23;2.05;;;;;;;13.22;56.56;100222.47;4996852;28;20387;-46
2020/12/07 06:39:00;;;;;;;1.88;1.17;;;;;;;13.22;57.67;100223.25;4993148;28;20456;-46
2020/12/07 06:41:42;;;;;;;12.38;3.53;;;;;;;13.04;57.31;100213.84;4999751;28;20065;-48
2020/12/07 06:44:27;;;;;;;9.90;1.27;;;;;;;12.92;58.65;100194.44;4997561;28;20412;-47
2020/12/07 06:47:11;;;;;;;2.97;0.98;;;;;;;12.96;58.45;100194.72;4990995;28;20040;-46
2020/12/07 06:52:14;;;;;;;7.22;3.17;;;;;;;13.24;57.66;100201.44;4987227;28;20038;-51
2020/12/07 06:57:38;;;;;;;7.15;1.35;;;;;;;13.24;57.02;100186.09;4988874;28;20457;-47
2020/12/07 07:00:18;;;;;;;5.18;1.90;;;;;;;13.09;56.83;100194.16;4987975;28;20045;-49
2020/12/07 07:02:46;;;;;;;3.20;0.73;;;;;;;12.98;57.34;100187.19;4987726;28;20038;-48
2020/12/07 07:05:12;;;;;;;1.58;0.85;;;;;;;13.05;57.33;100190.41;4988049;28;20042;-49
2020/12/07 07:07:38;;;;;;;11.27;2.20;;;;;;;12.99;57.77;100195.00;4990718;28;20045;-46
2020/12/07 07:10:06;;;;;;;9.32;2.35;;;;;;;13.12;58.07;100196.34;4990412;28;20133;-48
2020/12/07 07:12:31;;;;;;;5.20;2.25;;;;;;;13.06;58.60;100202.81;4976104;28;20050;-50
2020/12/07 07:14:57;;;;;;;13.00;2.10;;;;;;;13.04;58.44;100200.38;4987801;28;20799;-50
2020/12/07 07:17:28;;;;;;;3.00;1.15;;;;;;;13.10;57.72;100211.94;4988412;28;20031;-49
2020/12/07 07:19:54;;;;;;;15.30;3.10;;;;;;;13.18;57.89;100216.81;4995469;28;20034;-48
2020/12/07 07:22:19;;;;;;;6.55;1.13;;;;;;;13.17;56.79;100219.75;4995308;28;20372;-48
2020/12/07 07:30:04;;;;;;;3.65;1.75;;;;;;;13.21;58.86;100218.94;4991689;28;20630;-51
2020/12/07 07:32:29;;;;;;;10.02;1.48;;;;;;;13.33;58.22;100217.91;4988437;28;20384;-46
2020/12/07 07:34:55;;;;;;;1.30;0.95;;;;;;;13.31;58.24;100220.84;5006299;28;20031;-47
2020/12/07 07:37:21;;;;;;;5.63;1.83;;;;;;;13.35;58.84;100223.81;4985473;28;20045;-46
2020/12/07 07:39:47;;;;;;;6.22;1.33;;;;;;;13.31;59.19;100231.63;4989195;28;20069;-48
2020/12/07 07:42:16;;;;;;;6.45;2.13;;;;;;;13.20;59.92;100229.97;4989172;28;20034;-44
2020/12/07 07:44:48;;;;;;;9.43;1.10;;;;;;;13.26;60.38;100228.09;4993590;28;20057;-45
2020/12/07 07:47:21;;;;;;;7.60;1.90;;;;;;;13.19;60.02;100229.16;4981286;28;20077;-44
2020/12/07 07:50:19;;;;;;;11.60;2.55;;;;;;;13.19;60.78;100231.06;4988323;28;20399;-45
2020/12/07 08:06:05;;;;;;;7.40;2.17;;;;;;;13.33;60.37;100225.97;4997773;28;20682;-48
2020/12/07 08:17:59;;;;;;;7.38;1.75;;;;;;;13.50;60.69;100228.38;4992582;28;20035;-46
2020/12/07 08:20:28;;;;;;;4.80;2.03;;;;;;;13.43;61.41;100228.66;4999017;28;20038;-47
2020/12/07 08:23:02;;;;;;;4.60;1.95;;;;;;;13.38;61.17;100234.06;4996822;28;20061;-45
2020/12/07 08:25:50;;;;;;;3.25;1.30;;;;;;;13.33;61.93;100239.44;4999564;28;20030;-48
2020/12/07 08:28:37;;;;;;;4.22;1.58;;;;;;;13.43;62.31;100242.94;4999909;28;20030;-49
2020/12/07 08:31:20;;;;;;;7.40;1.60;;;;;;;13.40;62.56;100231.91;4995505;28;20042;-48
2020/12/07 08:34:01;;;;;;;8.40;2.92;;;;;;;13.43;63.87;100231.38;4994352;28;20101;-45
2020/12/07 08:36:29;;;;;;;4.53;2.78;;;;;;;13.43;63.97;100234.06;4992820;28;20049;-45
2020/12/07 08:38:55;;;;;;;7.68;5.15;;;;;;;13.43;63.92;100231.38;4993986;28;20061;-46
2020/12/07 08:41:22;;;;;;;12.18;4.25;;;;;;;13.40;64.60;100229.22;4994364;28;20069;-44
2020/12/07 08:43:51;;;;;;;5.82;3.42;;;;;;;13.49;64.97;100237.53;4993537;28;20093;-51
2020/12/07 08:46:19;;;;;;;4.80;3.05;;;;;;;13.34;65.86;100224.88;5000977;28;20034;-47
2020/12/07 08:48:45;;;;;;;14.38;8.60;;;;;;;13.37;66.10;100232.44;4999431;28;20046;-49
2020/12/07 08:51:10;;;;;;;10.90;8.70;;;;;;;13.28;67.13;100232.13;5000066;28;20038;-45
2020/12/07 08:53:37;;;;;;;23.33;17.67;;;;;;;13.26;66.75;100236.19;5000802;28;20041;-46
2020/12/07 08:56:04;;;;;;;17.52;4.90;;;;;;;13.22;67.68;100236.72;4996923;28;20031;-47
2020/12/07 08:58:30;;;;;;;9.63;6.03;;;;;;;13.15;68.98;100241.56;4991889;28;20088;-45
2020/12/07 09:00:55;;;;;;;17.30;7.57;;;;;;;13.20;69.29;100246.94;4993779;28;20035;-45
2020/12/07 09:03:23;;;;;;;13.95;3.15;;;;;;;13.33;67.71;100234.84;4993766;28;20038;-53
2020/12/07 09:05:49;;;;;;;5.90;2.20;;;;;;;13.50;66.98;100231.91;4993808;28;20101;-48
2020/12/07 09:08:14;;;;;;;29.42;20.63;;;;;;;13.55;67.22;100250.75;4993162;28;20065;-48
2020/12/07 09:10:40;;;;;;;18.52;13.68;;;;;;;13.48;68.40;100241.31;4993250;28;20491;-49
2020/12/07 09:13:05;;;;;;;8.32;3.45;;;;;;;13.40;66.95;100243.47;4993696;28;20054;-47
2020/12/07 09:15:32;;;;;;;4.80;3.13;;;;;;;13.36;67.74;100253.16;4993106;28;20088;-49
2020/12/07 09:17:58;;;;;;;4.05;1.88;;;;;;;13.42;66.88;100249.38;4993855;28;20120;-47
2020/12/07 09:20:24;;;;;;;7.90;2.28;;;;;;;13.34;68.27;100257.19;4993338;28;20145;-43
2020/12/07 09:22:49;;;;;;;7.85;4.20;;;;;;;13.37;69.38;100272.81;4993543;28;20084;-44
2020/12/07 09:25:14;;;;;;;6.47;3.90;;;;;;;13.32;69.75;100262.03;4993069;28;20037;-45
2020/12/07 09:27:40;;;;;;;12.18;6.68;;;;;;;13.16;67.81;100262.00;4993534;28;20037;-43
2020/12/07 09:30:06;;;;;;;7.97;2.03;;;;;;;13.33;69.34;100269.84;4993486;28;20037;-44
2020/12/07 09:32:32;;;;;;;4.57;2.90;;;;;;;13.33;68.86;100266.38;4992960;28;20035;-45
2020/12/07 09:34:58;;;;;;;11.95;5.30;;;;;;;13.35;68.38;100248.06;4994330;28;20698;-44
2020/12/07 09:37:23;;;;;;;8.73;5.40;;;;;;;13.44;68.44;100273.34;4993199;28;20038;-49
2020/12/07 09:39:49;;;;;;;11.30;3.67;;;;;;;13.23;68.83;100264.44;4993635;28;20052;-44
2020/12/07 09:42:14;;;;;;;9.02;5.88;;;;;;;13.29;69.14;100265.25;4993229;28;20045;-48
2020/12/07 09:44:40;;;;;;;9.13;2.63;;;;;;;13.30;69.18;100253.41;4992927;28;20038;-42
2020/12/07 09:47:05;;;;;;;9.90;4.18;;;;;;;13.28;68.66;100282.47;4992813;28;20534;-44
2020/12/07 09:49:32;;;;;;;2.97;2.33;;;;;;;13.33;68.89;100275.25;4992664;28;20070;-46
2020/12/07 09:51:57;;;;;;;21.88;6.97;;;;;;;13.38;69.92;100293.28;4992519;28;20034;-45
2020/12/07 09:54:23;;;;;;;10.50;7.18;;;;;;;13.49;68.74;100281.44;4992898;28;20068;-47
2020/12/07 09:56:48;;;;;;;6.38;5.05;;;;;;;13.58;68.21;100279.81;4992926;28;20360;-48
2020/12/07 09:59:14;;;;;;;6.03;4.85;;;;;;;13.37;68.43;100272.81;4992540;28;20039;-45
2020/12/07 10:01:39;;;;;;;9.07;3.53;;;;;;;13.32;67.90;100270.91;4992487;28;20026;-47
2020/12/07 10:04:05;;;;;;;15.95;3.95;;;;;;;13.30;67.90;100285.72;4994895;28;20041;-43
2020/12/07 10:06:30;;;;;;;10.75;4.70;;;;;;;13.40;67.37;100269.59;4999451;28;20042;-44
2020/12/07 10:08:56;;;;;;;3.95;2.15;;;;;;;13.34;68.13;100267.97;4997075;28;20065;-48
2020/12/07 10:11:22;;;;;;;9.38;4.60;;;;;;;13.47;67.79;100258.56;4999950;28;20129;-45
2020/12/07 10:13:47;;;;;;;10.68;4.75;;;;;;;13.39;66.66;100259.88;4997306;28;20117;-49
2020/12/07 10:16:13;;;;;;;9.93;6.15;;;;;;;13.44;66.84;100267.97;4998540;28;20080;-45
2020/12/07 10:18:40;;;;;;;17.27;3.95;;;;;;;13.43;68.48;100259.09;4998406;28;20049;-49
2020/12/07 10:21:06;;;;;;;17.10;9.70;;;;;;;13.51;66.73;100252.34;4996643;28;20030;-48
2020/12/07 10:23:32;;;;;;;12.43;8.90;;;;;;;13.60;67.18;100258.81;4999595;28;20044;-46
2020/12/07 10:25:57;;;;;;;7.35;5.40;;;;;;;13.56;66.90;100249.66;4997200;28;20038;-47
2020/12/07 10:28:23;;;;;;;11.07;2.35;;;;;;;13.63;65.96;100243.19;4999524;28;20050;-47
2020/12/07 10:30:48;;;;;;;5.32;2.63;;;;;;;13.58;66.55;100250.19;4997186;28;20050;-49
2020/12/07 10:33:14;;;;;;;8.27;5.18;;;;;;;13.53;65.33;100236.72;4998517;28;20467;-47
2020/12/07 10:35:39;;;;;;;11.75;5.07;;;;;;;13.59;68.24;100232.16;4997959;28;20061;-44
2020/12/07 10:38:05;;;;;;;16.05;5.07;;;;;;;13.61;67.00;100241.56;4997540;28;20042;-48
2020/12/07 10:40:30;;;;;;;6.85;5.15;;;;;;;13.69;68.09;100236.69;4998334;28;20473;-45
2020/12/07 10:42:57;;;;;;;5.50;4.18;;;;;;;13.69;67.60;100226.75;4997208;28;20034;-47
2020/12/07 10:45:22;;;;;;;8.20;3.13;;;;;;;13.73;66.61;100221.63;4999468;28;20034;-47
2020/12/07 10:47:50;;;;;;;2.45;1.75;;;;;;;13.74;67.58;100221.31;4989502;28;20442;-45
2020/12/07 10:50:16;;;;;;;5.38;1.52;;;;;;;13.57;65.40;100218.16;4998322;28;20431;-46
2020/12/07 10:52:42;;;;;;;5.88;4.13;;;;;;;13.75;66.21;100206.78;4996537;28;20049;-46
2020/12/07 10:55:07;;;;;;;8.15;5.55;;;;;;;13.77;66.43;100201.13;4996934;28;20408;-44
2020/12/07 10:57:32;;;;;;;7.22;3.03;;;;;;;13.78;64.54;100197.38;4999055;28;20400;-49
2020/12/07 10:59:58;;;;;;;3.00;1.67;;;;;;;13.65;64.79;100197.94;4996755;28;20463;-45
2020/12/07 11:02:23;;;;;;;5.25;1.70;;;;;;;13.71;64.71;100205.72;4999126;28;20486;-46
2020/12/07 11:04:49;;;;;;;3.85;1.70;;;;;;;13.74;65.71;100194.38;4985035;28;20391;-45
2020/12/07 11:07:17;;;;;;;11.25;3.13;;;;;;;13.68;65.24;100192.78;4997508;28;20379;-45
2020/12/07 11:09:42;;;;;;;8.13;4.00;;;;;;;13.80;65.55;100193.31;4997057;28;20117;-44
2020/12/07 11:12:14;;;;;;;3.63;1.52;;;;;;;13.76;64.99;100196.81;4996601;28;20076;-46
2020/12/07 11:14:39;;;;;;;;;;;;;;;13.80;64.35;100195.19;4997938;28;20038;-43
2020/12/07 11:17:06;;;;;;;14.30;2.65;;;;;;;13.82;64.28;100179.56;4996341;28;19968;-44
2020/12/07 11:19:31;;;;;;;13.10;3.15;;;;;;;13.92;64.10;100187.63;4998629;28;20037;-45
2020/12/07 11:21:57;;;;;;;10.25;3.72;;;;;;;13.95;63.77;100167.38;4996569;28;20114;-44
2020/12/07 11:24:22;;;;;;;14.43;3.42;;;;;;;13.84;65.24;100172.00;4998200;28;20064;-46
2020/12/07 11:26:47;;;;;;;5.15;3.15;;;;;;;14.10;64.16;100161.94;4996149;28;20467;-45
2020/12/07 11:29:13;;;;;;;6.32;3.22;;;;;;;14.23;63.90;100157.00;4997430;28;20053;-48
2020/12/07 11:31:38;;;;;;;7.70;3.55;;;;;;;14.12;62.79;100148.19;4997411;28;20037;-47
2020/12/07 11:34:04;;;;;;;8.25;3.88;;;;;;;14.25;62.72;100139.47;5000335;28;20044;-47
2020/12/07 11:36:29;;;;;;;5.05;1.85;;;;;;;14.23;62.77;100147.03;5002687;28;20139;-46
2020/12/07 11:46:30;;;;;;;4.85;2.25;;;;;;;14.14;64.80;100137.91;4995194;28;20056;-45
2020/12/07 11:48:56;;;;;;;7.10;2.75;;;;;;;14.14;62.13;100124.44;4995916;28;20042;-46
2020/12/07 11:51:26;;;;;;;14.85;2.70;;;;;;;14.22;63.52;100128.44;5002163;28;20037;-46
2020/12/07 11:53:54;;;;;;;4.38;1.60;;;;;;;14.19;63.02;100129.81;4995220;28;20066;-48
2020/12/07 11:56:30;;;;;;;10.45;4.20;;;;;;;14.21;63.51;100119.53;5001972;28;20077;-44
2020/12/07 11:58:56;;;;;;;7.55;3.08;;;;;;;14.25;63.05;100107.09;4994944;28;20096;-46
2020/12/07 12:01:21;;;;;;;4.95;3.22;;;;;;;14.35;63.14;100115.13;5001301;28;20486;-48
2020/12/07 12:03:47;;;;;;;3.25;2.85;;;;;;;14.32;63.53;100110.31;4999890;28;20038;-45
2020/12/07 12:06:30;;;;;;;4.78;3.28;;;;;;;14.33;64.19;100114.63;4997706;28;20082;-44